Time;durP1;ratioP1;P1;durP2;ratioP2;P2;SDS_P1;SDS_P2;PMS_P1;PMS_P2;Temp;Humidity;BMP_temperature;BMP_pressure;BME280_temperature;BME280_humidity;BME280_pressure;Samples;Min_cycle;Max_cycle;Signal;HPM_P1;HPM_P2
2020/12/22 00:01:16;;;;;;;169.77;83.70;;;;;;;-2.14;85.78;98755.27;1784770;79;21011;-78
2020/12/22 00:03:42;;;;;;;159.82;81.22;;;;;;;-2.19;85.75;98751.84;1784872;79;20943;-78
2020/12/22 00:06:11;;;;;;;155.75;76.12;;;;;;;-2.16;85.82;98755.45;1784807;79;21076;-78
2020/12/22 00:08:37;;;;;;;142.53;73.75;;;;;;;-2.19;85.55;98751.02;1784796;80;21165;-78
2020/12/22 00:11:03;;;;;;;151.65;73.25;;;;;;;-2.20;85.44;98748.05;1784690;79;21629;-78
2020/12/22 00:13:29;;;;;;;142.30;70.85;;;;;;;-2.25;85.47;98740.61;1784886;80;20908;-78
2020/12/22 00:15:55;;;;;;;137.32;67.87;;;;;;;-2.26;85.46;98741.63;1784804;79;20987;-78
2020/12/22 00:18:21;;;;;;;123.45;64.47;;;;;;;-2.28;85.38;98746.30;1784959;79;21369;-78
2020/12/22 00:20:48;;;;;;;141.88;70.95;;;;;;;-2.33;85.11;98745.48;1784774;79;21161;-78
2020/12/22 00:23:13;;;;;;;142.87;69.92;;;;;;;-2.38;85.20;98735.92;1754568;80;21595;-77
2020/12/22 00:25:45;;;;;;;154.60;73.60;;;;;;;-2.46;85.44;98728.03;1784873;79;21010;-77
2020/12/22 00:28:14;;;;;;;153.27;72.82;;;;;;;-2.46;85.76;98714.77;1784195;80;21118;-78
2020/12/22 00:30:41;;;;;;;143.32;72.08;;;;;;;-2.38;86.16;98729.80;1784938;79;21130;-78
2020/12/22 00:33:07;;;;;;;134.72;67.50;;;;;;;-2.28;86.19;98737.00;1784828;80;21458;-78
2020/12/22 00:35:32;;;;;;;129.05;65.20;;;;;;;-2.20;86.14;98733.45;1784730;79;20880;-78
2020/12/22 00:37:59;;;;;;;128.23;61.98;;;;;;;-2.13;85.90;98729.89;1784828;80;21054;-78
2020/12/22 00:40:25;;;;;;;122.53;63.52;;;;;;;-2.07;86.07;98723.83;1784824;79;21043;-77
2020/12/22 00:42:51;;;;;;;117.80;60.10;;;;;;;-2.00;86.12;98720.77;1784767;80;21145;-77
2020/12/22 00:45:19;;;;;;;117.80;62.73;;;;;;;-1.94;86.00;98721.89;1784792;79;21372;-77
2020/12/22 00:47:44;;;;;;;133.78;65.55;;;;;;;-1.92;85.94;98720.37;1784726;80;21047;-77
2020/12/22 00:50:10;;;;;;;129.85;63.23;;;;;;;-1.90;85.84;98716.52;1784772;79;20951;-77
2020/12/22 00:52:36;;;;;;;143.02;69.07;;;;;;;-1.92;85.28;98719.04;1784793;79;20947;-77
2020/12/22 00:55:02;;;;;;;134.15;69.27;;;;;;;-1.98;84.99;98709.96;1784840;79;20896;-77
2020/12/22 00:57:28;;;;;;;125.75;63.35;;;;;;;-2.13;84.02;98702.51;1784812;80;21444;-77
2020/12/22 00:59:54;;;;;;;138.35;67.50;;;;;;;-2.23;84.39;98689.98;1784781;79;20999;-77
2020/12/22 01:02:20;;;;;;;103.63;47.67;;;;;;;-2.29;84.55;98686.23;1784805;80;21666;-77
2020/12/22 01:04:46;;;;;;;115.75;56.33;;;;;;;-2.21;85.26;98688.81;1784724;79;20899;-77
2020/12/22 01:13:06;;;;;;;203.37;91.45;;;;;;;-1.90;85.92;98672.68;1875285;75;22034;-76
2020/12/22 01:15:32;;;;;;;164.18;81.57;;;;;;;-1.86;86.09;98671.83;1816592;77;20904;-77
2020/12/22 01:17:57;;;;;;;151.97;80.25;;;;;;;-1.86;85.55;98670.50;1796429;79;21979;-77
2020/12/22 01:20:23;;;;;;;119.17;63.73;;;;;;;-1.94;85.27;98662.63;1796409;78;21019;-77
2020/12/22 01:22:49;;;;;;;128.15;61.50;;;;;;;-1.94;85.54;98650.67;1796429;79;20978;-77
2020/12/22 01:25:15;;;;;;;118.33;61.05;;;;;;;-1.91;85.53;98655.60;1796462;78;20944;-77
2020/12/22 01:27:41;;;;;;;141.85;64.77;;;;;;;-1.93;85.34;98654.46;1796284;79;20888;-77
2020/12/22 01:30:07;;;;;;;131.87;66.40;;;;;;;-1.95;85.08;98660.98;1796415;78;21070;-77
2020/12/22 01:32:32;;;;;;;143.60;65.57;;;;;;;-2.02;84.74;98660.37;1796287;79;20908;-77
2020/12/22 01:34:58;;;;;;;133.32;64.07;;;;;;;-2.14;84.18;98653.03;1796464;78;21586;-77
2020/12/22 01:37:24;;;;;;;137.90;67.12;;;;;;;-2.23;84.16;98652.80;1796356;79;20876;-77
2020/12/22 01:39:50;;;;;;;144.65;70.22;;;;;;;-2.30;84.48;98658.05;1796415;78;20980;-77
2020/12/22 01:42:16;;;;;;;132.10;66.02;;;;;;;-2.30;84.60;98654.06;1778625;79;21129;-77
2020/12/22 01:44:42;;;;;;;141.82;66.72;;;;;;;-2.35;84.52;98651.94;1796411;78;20928;-77
2020/12/22 01:47:08;;;;;;;128.42;65.65;;;;;;;-2.39;84.54;98651.99;1796384;79;20904;-77
2020/12/22 01:49:34;;;;;;;134.47;64.77;;;;;;;-2.44;84.35;98647.72;1778575;79;20999;-77
2020/12/22 01:52:01;;;;;;;153.20;73.05;;;;;;;-2.46;84.58;98635.14;1796248;78;20928;-77
2020/12/22 01:54:27;;;;;;;161.10;75.10;;;;;;;-2.45;84.77;98641.27;1796449;79;21400;-78
2020/12/22 01:56:53;;;;;;;133.12;66.92;;;;;;;-2.47;84.75;98646.77;1796281;78;21058;-78
2020/12/22 01:59:19;;;;;;;136.72;64.60;;;;;;;-2.42;84.81;98652.84;1778552;79;21302;-78
2020/12/22 02:01:45;;;;;;;135.03;62.83;;;;;;;-2.47;84.81;98641.96;1796367;78;20957;-78
2020/12/22 02:04:11;;;;;;;150.05;66.12;;;;;;;-2.48;84.80;98644.27;1796430;79;21238;-77
2020/12/22 02:06:37;;;;;;;135.35;63.73;;;;;;;-2.46;84.92;98638.30;1796380;78;21218;-77
2020/12/22 02:09:10;;;;;;;129.85;62.15;;;;;;;-2.40;85.17;98629.59;1796371;79;20925;-77
2020/12/22 02:11:38;;;;;;;129.10;64.72;;;;;;;-2.38;85.12;98632.40;1796237;78;21067;-78
2020/12/22 02:14:06;;;;;;;129.78;61.75;;;;;;;-2.34;85.14;98630.20;1778633;79;21138;-78
2020/12/22 02:16:32;;;;;;;128.10;60.90;;;;;;;-2.37;85.00;98627.91;1796566;78;21023;-78
2020/12/22 02:18:58;;;;;;;117.35;59.15;;;;;;;-2.42;84.92;98631.61;1778599;79;21152;-77
2020/12/22 02:21:24;;;;;;;129.75;62.40;;;;;;;-2.37;85.13;98630.06;1796251;78;21074;-77
2020/12/22 02:23:52;;;;;;;111.22;56.58;;;;;;;-2.32;85.15;98621.53;1795872;79;21146;-78
2020/12/22 02:26:21;;;;;;;116.17;60.00;;;;;;;-2.26;85.26;98619.48;1778212;79;21106;-78
2020/12/22 02:28:48;;;;;;;120.28;60.40;;;;;;;-2.25;85.00;98606.53;1778070;80;21165;-78
2020/12/22 02:31:14;;;;;;;114.85;57.38;;;;;;;-2.34;84.41;98607.13;1795691;78;21447;-78
2020/12/22 02:33:40;;;;;;;104.07;51.33;;;;;;;-2.35;84.70;98610.79;1795724;80;20881;-78
2020/12/22 02:36:13;;;;;;;110.95;53.08;;;;;;;-2.42;84.35;98599.75;1795677;78;21553;-78
2020/12/22 02:38:40;;;;;;;106.70;51.50;;;;;;;-2.49;84.38;98594.34;1795778;80;21125;-78
2020/12/22 02:41:06;;;;;;;117.45;57.38;;;;;;;-2.62;84.37;98587.03;1795753;78;21674;-78
2020/12/22 02:43:32;;;;;;;115.20;58.20;;;;;;;-2.62;84.80;98579.07;1795727;80;21183;-78
2020/12/22 02:45:58;;;;;;;105.30;51.88;;;;;;;-2.60;84.82;98578.38;1795725;78;21031;-78
2020/12/22 02:48:25;;;;;;;104.92;51.88;;;;;;;-2.62;84.71;98580.40;1795700;80;20869;-78
2020/12/22 02:50:51;;;;;;;94.92;50.90;;;;;;;-2.64;84.74;98574.45;1795770;78;21052;-78
2020/12/22 02:53:17;;;;;;;108.30;51.63;;;;;;;-2.66;84.62;98565.83;1795636;80;21003;-78
2020/12/22 02:55:43;;;;;;;111.30;55.25;;;;;;;-2.64;84.76;98558.53;1795753;78;21187;-78
2020/12/22 02:58:08;;;;;;;101.20;50.75;;;;;;;-2.71;84.35;98562.91;1795672;79;21081;-78
2020/12/22 03:00:34;;;;;;;109.65;53.58;;;;;;;-2.73;84.39;98551.67;1795749;78;20979;-78
2020/12/22 03:03:00;;;;;;;113.83;56.02;;;;;;;-2.72;84.58;98552.48;1795668;80;20991;-78
2020/12/22 03:05:26;;;;;;;117.87;58.20;;;;;;;-2.68;84.77;98546.63;1795780;78;20960;-78
2020/12/22 03:07:52;;;;;;;109.15;54.03;;;;;;;-2.60;85.05;98548.37;1795709;80;21089;-78
2020/12/22 03:10:18;;;;;;;112.20;54.40;;;;;;;-2.51;85.17;98551.75;1795665;78;20990;-78
2020/12/22 03:12:45;;;;;;;117.20;55.15;;;;;;;-2.42;85.20;98550.65;1793693;79;21559;-78
2020/12/22 03:15:11;;;;;;;113.47;59.73;;;;;;;-2.40;85.16;98551.28;1792620;78;21135;-78
2020/12/22 03:17:38;;;;;;;113.32;52.93;;;;;;;-2.46;84.38;98546.23;1792584;80;20912;-78
2020/12/22 03:20:06;;;;;;;103.40;52.25;;;;;;;-2.48;84.42;98548.22;1792600;78;22072;-78
2020/12/22 03:22:36;;;;;;;103.72;52.90;;;;;;;-2.50;84.36;98552.06;1792636;80;21047;-78
2020/12/22 03:25:02;;;;;;;108.07;53.33;;;;;;;-2.48;84.73;98554.84;1792681;78;21074;-77
2020/12/22 03:27:28;;;;;;;102.80;53.00;;;;;;;-2.41;84.92;98554.95;1772620;80;21582;-77
2020/12/22 03:29:53;;;;;;;93.10;46.60;;;;;;;-2.40;84.88;98550.78;1792545;78;20923;-77
2020/12/22 03:32:19;;;;;;;102.07;49.75;;;;;;;-2.38;84.76;98544.80;1792490;80;21479;-77
2020/12/22 03:34:45;;;;;;;106.05;53.52;;;;;;;-2.36;84.92;98543.28;1792553;78;20861;-77
2020/12/22 03:37:11;;;;;;;109.83;53.52;;;;;;;-2.28;85.19;98537.37;1772574;80;21558;-77
2020/12/22 03:39:37;;;;;;;112.08;55.43;;;;;;;-2.16;85.30;98536.38;1792665;78;20940;-77
2020/12/22 03:42:02;;;;;;;98.70;48.23;;;;;;;-2.07;85.29;98535.77;1772422;80;20893;-77
2020/12/22 03:44:28;;;;;;;99.15;48.45;;;;;;;-1.99;85.23;98547.11;1792671;80;21015;-77
2020/12/22 03:46:54;;;;;;;94.92;47.78;;;;;;;-1.94;85.22;98531.13;1792538;78;21007;-77
2020/12/22 03:49:20;;;;;;;96.65;48.52;;;;;;;-1.87;85.09;98533.36;1792579;80;20929;-77
2020/12/22 03:51:46;;;;;;;94.77;45.33;;;;;;;-1.84;85.11;98532.98;1792454;78;21554;-77
2020/12/22 03:54:15;;;;;;;92.35;45.58;;;;;;;-1.78;85.18;98536.22;1792675;79;20925;-77
2020/12/22 03:56:41;;;;;;;87.88;47.30;;;;;;;-1.75;84.84;98522.55;1792743;78;21222;-78
2020/12/22 03:59:06;;;;;;;98.52;50.92;;;;;;;-1.80;84.50;98527.08;1792587;80;21046;-78
2020/12/22 04:01:32;;;;;;;93.30;46.63;;;;;;;-1.87;84.47;98509.45;1792539;78;20889;-78
2020/12/22 04:03:58;;;;;;;105.52;49.35;;;;;;;-1.87;84.63;98504.96;1792578;80;20999;-78
2020/12/22 04:06:24;;;;;;;104.65;50.28;;;;;;;-1.83;84.92;98504.89;1792688;78;20997;-78
2020/12/22 04:08:52;;;;;;;108.20;49.93;;;;;;;-1.95;84.05;98509.57;1772533;80;21546;-78
2020/12/22 04:11:18;;;;;;;108.00;50.63;;;;;;;-1.97;84.30;98508.91;1792611;78;21111;-78
2020/12/22 04:13:44;;;;;;;107.25;51.95;;;;;;;-1.96;84.42;98508.75;1792515;80;21019;-78
2020/12/22 04:16:10;;;;;;;109.15;52.35;;;;;;;-1.94;84.59;98509.88;1792509;78;20912;-78
2020/12/22 04:18:36;;;;;;;99.40;51.10;;;;;;;-2.00;84.51;98504.80;1792478;80;21269;-78
2020/12/22 04:21:02;;;;;;;109.35;55.60;;;;;;;-2.03;84.62;98492.73;1792543;78;21406;-78
2020/12/22 04:23:28;;;;;;;144.20;60.10;;;;;;;-1.97;84.87;98481.84;1792422;80;20892;-78
2020/12/22 04:25:54;;;;;;;143.95;64.53;;;;;;;-2.00;84.90;98476.41;1792562;78;20949;-78
2020/12/22 04:28:20;;;;;;;164.90;76.28;;;;;;;-2.06;84.80;98471.02;1772403;80;21134;-78
2020/12/22 04:30:46;;;;;;;189.50;85.45;;;;;;;-2.03;84.67;98475.47;1792646;78;20991;-78
2020/12/22 04:33:12;;;;;;;186.32;83.30;;;;;;;-1.99;84.83;98462.63;1792523;80;21157;-78
2020/12/22 04:35:39;;;;;;;193.22;83.62;;;;;;;-1.92;84.97;98465.35;1792428;78;20987;-78
2020/12/22 04:38:05;;;;;;;153.60;69.50;;;;;;;-1.91;84.94;98474.45;1792530;80;21062;-78
2020/12/22 04:40:32;;;;;;;134.20;63.23;;;;;;;-1.89;84.69;98496.84;1792509;78;20971;-78
2020/12/22 04:42:59;;;;;;;139.30;59.65;;;;;;;-1.85;84.79;98504.77;1792527;80;21213;-78
2020/12/22 04:45:28;;;;;;;133.93;60.63;;;;;;;-1.86;84.76;98485.34;1792552;78;21148;-78
2020/12/22 04:47:57;;;;;;;126.60;57.93;;;;;;;-1.92;84.51;98476.80;1792389;80;21035;-78
2020/12/22 04:50:23;;;;;;;105.97;49.75;;;;;;;-1.99;84.97;98469.27;1792651;78;21031;-78
2020/12/22 04:52:51;;;;;;;103.67;52.75;;;;;;;-2.04;84.81;98472.50;1792461;80;21118;-78
2020/12/22 04:55:20;;;;;;;106.67;52.80;;;;;;;-1.99;85.26;98486.02;1792494;78;21169;-78
2020/12/22 04:57:48;;;;;;;;;;;;;;;-1.88;85.73;98483.39;1795128;80;21761;-77
2020/12/22 05:00:15;;;;;;;84.50;44.07;;;;;;;-1.84;85.40;98476.67;1792238;78;20216;-78
2020/12/22 05:02:42;;;;;;;133.57;63.73;;;;;;;-1.75;85.68;98482.18;1792530;80;21729;-78
2020/12/22 05:05:11;;;;;;;101.97;49.90;;;;;;;-1.73;85.48;98475.34;1792541;78;21106;-78
2020/12/22 05:07:38;;;;;;;130.50;61.30;;;;;;;-1.66;85.50;98472.75;1792714;80;21185;-78
2020/12/22 05:10:10;;;;;;;97.97;49.30;;;;;;;-1.61;85.54;98460.55;1792510;78;21208;-78
2020/12/22 05:12:41;;;;;;;98.72;48.15;;;;;;;-1.60;85.17;98455.55;1792263;80;21843;-78
2020/12/22 05:15:08;;;;;;;87.92;43.87;;;;;;;-1.64;85.16;98460.91;1792655;78;21170;-78
2020/12/22 05:17:42;;;;;;;95.07;51.28;;;;;;;-1.60;85.17;98446.75;1792476;80;21043;-78
2020/12/22 05:20:12;;;;;;;95.95;48.10;;;;;;;-1.64;85.23;98441.48;1792302;78;21531;-78
2020/12/22 05:22:37;;;;;;;112.20;55.03;;;;;;;-1.60;85.31;98439.60;1792528;79;21141;-78
2020/12/22 05:25:03;;;;;;;96.45;49.80;;;;;;;-1.58;85.15;98436.23;1772457;79;21090;-78
2020/12/22 05:27:30;;;;;;;108.63;47.88;;;;;;;-1.61;85.39;98430.49;1772442;80;21194;-78
2020/12/22 05:30:00;;;;;;;106.72;55.08;;;;;;;-1.51;85.32;98420.35;1792492;78;21039;-78
2020/12/22 05:32:27;;;;;;;88.20;44.45;;;;;;;-1.57;85.39;98424.59;1748596;80;21015;-78
2020/12/22 05:34:53;;;;;;;90.65;46.25;;;;;;;-1.48;85.60;98433.24;1792489;78;21158;-78
2020/12/22 05:37:24;;;;;;;106.87;53.95;;;;;;;-1.43;85.73;98431.66;1792297;80;21067;-78
2020/12/22 05:39:50;;;;;;;103.47;54.88;;;;;;;-1.36;85.63;98431.72;1792206;78;21180;-78
2020/12/22 05:42:17;;;;;;;100.53;49.95;;;;;;;-1.38;85.90;98431.58;1792559;80;21626;-78
2020/12/22 05:44:51;;;;;;;81.22;44.85;;;;;;;-1.33;85.60;98442.47;1772619;78;21661;-78
2020/12/22 05:47:19;;;;;;;71.00;36.40;;;;;;;-1.27;85.61;98440.38;1792236;79;21205;-77
2020/12/22 05:49:56;;;;;;;79.70;43.87;;;;;;;-1.26;85.46;98434.03;1792693;78;21099;-78
2020/12/22 05:52:23;;;;;;;85.28;46.30;;;;;;;-1.23;85.46;98438.95;1792361;80;21032;-77
2020/12/22 05:54:51;;;;;;;81.85;40.35;;;;;;;-1.21;85.36;98432.41;1792453;78;21143;-77
2020/12/22 05:57:26;;;;;;;80.25;41.88;;;;;;;-1.17;85.27;98419.56;1792503;80;21114;-77
2020/12/22 05:59:52;;;;;;;101.30;50.33;;;;;;;-1.23;85.03;98411.03;1792007;78;21119;-78
2020/12/22 06:02:27;;;;;;;104.90;55.63;;;;;;;-1.26;85.26;98401.61;1792621;79;21394;-80
2020/12/22 06:05:00;;;;;;;124.18;61.40;;;;;;;-1.21;85.05;98400.50;1792591;78;21031;-73
2020/12/22 06:07:27;;;;;;;110.97;58.85;;;;;;;-1.25;85.28;98401.10;1792832;80;21483;-66
2020/12/22 06:09:54;;;;;;;116.77;63.70;;;;;;;-1.20;85.42;98401.32;1792853;78;21108;-58
2020/12/22 06:12:20;;;;;;;109.37;59.42;;;;;;;-1.18;85.40;98405.45;1792284;78;21154;-65
2020/12/22 06:14:52;;;;;;;106.55;60.05;;;;;;;-1.09;85.55;98405.30;1792753;78;21118;-75
2020/12/22 06:17:19;;;;;;;134.12;66.02;;;;;;;-1.03;85.54;98398.66;1792823;79;21141;-66
2020/12/22 06:19:45;;;;;;;126.60;63.68;;;;;;;-0.96;85.62;98400.03;1792699;80;21561;-75
2020/12/22 06:22:13;;;;;;;123.82;59.95;;;;;;;-0.90;85.50;98388.61;1792805;80;21014;-75
2020/12/22 06:24:39;;;;;;;168.28;76.90;;;;;;;-0.90;85.15;98392.09;1792750;80;21349;-77
2020/12/22 06:27:08;;;;;;;137.25;64.67;;;;;;;-0.90;85.32;98380.63;1792690;80;21518;-71
2020/12/22 06:29:38;;;;;;;137.12;64.53;;;;;;;-0.89;85.34;98380.43;1791996;79;21122;-81
2020/12/22 06:32:25;;;;;;;158.72;71.35;;;;;;;-0.83;85.32;98382.00;1792132;80;21136;-76
2020/12/22 06:34:55;;;;;;;130.22;62.67;;;;;;;-0.82;85.01;98368.49;1792365;78;21587;-83
2020/12/22 06:37:42;;;;;;;115.97;58.02;;;;;;;-0.92;84.97;98369.37;1790099;79;22226;-77
2020/12/22 06:40:08;;;;;;;113.97;52.03;;;;;;;-1.00;85.27;98362.37;1792150;78;21665;-83
2020/12/22 06:42:48;;;;;;;101.22;46.42;;;;;;;-1.03;86.09;98351.29;1792132;80;21011;-76
2020/12/22 06:45:35;;;;;;;122.65;61.70;;;;;;;-0.97;85.77;98349.18;1772134;79;21617;-78
2020/12/22 06:48:01;;;;;;;107.72;56.25;;;;;;;-0.88;85.77;98347.98;1772581;80;21082;-77
2020/12/22 06:50:43;;;;;;;111.05;53.33;;;;;;;-0.86;85.75;98338.78;1792361;78;21726;-79
2020/12/22 06:53:34;;;;;;;103.80;52.73;;;;;;;-0.82;85.57;98342.39;1792558;80;21558;-76
2020/12/22 06:56:04;;;;;;;106.97;52.55;;;;;;;-0.81;86.05;98341.38;1789676;78;21123;-77
2020/12/22 06:58:41;;;;;;;135.22;65.35;;;;;;;-0.76;85.69;98345.09;1792580;80;21118;-83
2020/12/22 07:01:29;;;;;;;216.97;88.30;;;;;;;-0.76;86.02;98334.95;1792668;78;21138;-77
2020/12/22 07:04:17;;;;;;;501.98;229.32;;;;;;;-0.72;85.75;98340.99;1792241;80;22096;-85
2020/12/22 07:06:58;;;;;;;287.07;126.50;;;;;;;-0.65;85.76;98345.83;1792993;78;21065;-83
2020/12/22 07:09:35;;;;;;;268.25;114.90;;;;;;;-0.57;85.84;98346.98;1792556;79;21564;-83
2020/12/22 07:12:12;;;;;;;327.18;146.32;;;;;;;-0.45;85.54;98350.39;1792067;78;21571;-77
2020/12/22 07:14:45;;;;;;;236.77;108.92;;;;;;;-0.52;85.56;98341.55;1792560;78;21106;-84
2020/12/22 07:17:13;;;;;;;309.32;129.50;;;;;;;-0.45;85.67;98342.39;1773134;80;21902;-84
2020/12/22 07:19:41;;;;;;;288.90;142.62;;;;;;;-0.40;85.67;98343.44;1792423;78;21138;-77
2020/12/22 07:22:07;;;;;;;288.77;135.70;;;;;;;-0.35;85.64;98346.30;1748057;80;21142;-77
2020/12/22 07:24:39;;;;;;;265.65;131.63;;;;;;;-0.30;85.47;98337.72;1792480;79;21492;-84
2020/12/22 07:27:04;;;;;;;236.07;123.02;;;;;;;-0.27;85.28;98339.97;1792462;79;21150;-77
2020/12/22 07:29:30;;;;;;;671.37;284.50;;;;;;;-0.23;85.49;98335.89;1792625;80;21514;-77
2020/12/22 07:31:57;;;;;;;224.95;113.70;;;;;;;-0.17;85.42;98338.23;1772448;79;20893;-77
2020/12/22 07:34:23;;;;;;;229.15;111.17;;;;;;;-0.14;85.32;98332.02;1772665;80;21067;-77
2020/12/22 07:36:49;;;;;;;224.40;103.17;;;;;;;-0.12;85.21;98331.80;1792615;78;21090;-77
2020/12/22 07:39:23;;;;;;;375.13;146.65;;;;;;;-0.06;85.11;98325.67;1792515;80;20947;-84
2020/12/22 07:41:50;;;;;;;406.60;167.68;;;;;;;-0.01;85.20;98320.53;1792567;78;21973;-85
2020/12/22 07:44:22;;;;;;;150.57;78.40;;;;;;;0.11;85.18;98324.75;1792306;79;21146;-85
2020/12/22 07:46:51;;;;;;;154.97;77.70;;;;;;;0.14;85.12;98315.00;1792505;78;21118;-83
2020/12/22 07:49:17;;;;;;;207.52;101.82;;;;;;;0.18;85.21;98316.25;1792355;79;21146;-76
2020/12/22 07:51:47;;;;;;;251.02;117.62;;;;;;;0.28;85.40;98314.80;1792648;78;20915;-76
2020/12/22 07:54:13;;;;;;;216.78;115.82;;;;;;;0.32;85.19;98309.05;1792538;79;22100;-83
2020/12/22 07:56:41;;;;;;;203.30;109.22;;;;;;;0.33;85.27;98302.16;1798820;78;21558;-76
2020/12/22 07:59:10;;;;;;;166.30;83.58;;;;;;;0.37;85.43;98303.41;1792536;80;21159;-83
2020/12/22 08:01:43;;;;;;;349.82;138.55;;;;;;;0.35;85.84;98282.81;1792453;78;21055;-76
2020/12/22 08:04:24;;;;;;;157.93;79.45;;;;;;;0.43;85.60;98291.92;1792631;80;21591;-84
2020/12/22 08:07:06;;;;;;;123.90;65.52;;;;;;;0.53;85.45;98284.30;1792610;78;21278;-83
2020/12/22 08:09:34;;;;;;;84.77;46.50;;;;;;;0.65;85.38;98283.65;1798854;78;21476;-83
2020/12/22 08:12:02;;;;;;;95.75;52.85;;;;;;;0.68;85.37;98285.37;1792480;78;21558;-82
2020/12/22 08:14:28;;;;;;;92.27;49.18;;;;;;;0.64;85.86;98272.68;1792591;80;21150;-77
2020/12/22 08:17:00;;;;;;;104.72;56.23;;;;;;;0.71;85.54;98267.63;1792538;78;20861;-77
2020/12/22 08:19:30;;;;;;;102.78;55.43;;;;;;;0.66;85.88;98270.61;1792492;80;21757;-83
2020/12/22 08:21:56;;;;;;;176.25;83.52;;;;;;;0.72;85.73;98270.60;1792523;78;21043;-83
2020/12/22 08:24:22;;;;;;;109.63;56.42;;;;;;;0.80;85.86;98270.37;1792489;80;21015;-76
2020/12/22 08:26:49;;;;;;;163.70;81.65;;;;;;;0.93;85.78;98260.66;1772439;79;20991;-76
2020/12/22 08:29:17;;;;;;;91.80;51.50;;;;;;;0.93;85.59;98257.47;1792510;80;21035;-76
2020/12/22 08:31:44;;;;;;;89.22;50.28;;;;;;;0.98;85.50;98247.00;1772344;79;21836;-77
2020/12/22 08:34:11;;;;;;;138.10;71.72;;;;;;;1.04;85.49;98247.48;1792500;79;21155;-77
2020/12/22 08:36:37;;;;;;;206.40;102.78;;;;;;;1.12;85.67;98245.09;1792596;78;21150;-77
2020/12/22 08:39:21;;;;;;;176.00;91.00;;;;;;;1.07;85.50;98236.89;1792459;79;21500;-84
2020/12/22 08:41:52;;;;;;;109.57;60.73;;;;;;;1.07;85.49;98231.55;1786563;79;21543;-75
2020/12/22 08:44:18;;;;;;;95.87;51.25;;;;;;;1.09;85.64;98222.81;1792458;79;21139;-83
2020/12/22 08:46:44;;;;;;;94.62;56.95;;;;;;;1.06;85.23;98216.06;1798745;78;20936;-83
2020/12/22 08:49:21;;;;;;;132.72;72.40;;;;;;;1.03;85.55;98212.49;1792390;80;21119;-83
2020/12/22 08:51:48;;;;;;;90.17;51.37;;;;;;;1.03;85.94;98211.16;1792538;78;21575;-75
2020/12/22 08:54:14;;;;;;;124.72;69.82;;;;;;;1.02;86.18;98210.83;1792523;80;21186;-75
2020/12/22 08:56:41;;;;;;;128.47;69.30;;;;;;;1.12;85.77;98213.06;1792595;78;22157;-76
2020/12/22 08:59:12;;;;;;;130.93;73.25;;;;;;;1.21;85.81;98213.62;1792437;80;21162;-83
2020/12/22 09:01:45;;;;;;;144.72;81.47;;;;;;;1.25;85.68;98206.81;1792551;78;21126;-77
2020/12/22 09:04:11;;;;;;;138.03;79.75;;;;;;;1.32;85.69;98203.06;1792669;80;21039;-84
2020/12/22 09:06:47;;;;;;;201.92;119.50;;;;;;;1.37;85.54;98195.23;1772699;79;21015;-77
2020/12/22 09:09:24;;;;;;;93.03;53.50;;;;;;;1.38;85.57;98190.20;1792526;80;21327;-83
2020/12/22 09:11:49;;;;;;;98.97;57.50;;;;;;;1.45;85.58;98186.63;1792456;78;21580;-76
2020/12/22 09:14:18;;;;;;;107.25;59.60;;;;;;;1.48;85.70;98191.04;1792346;80;20928;-76
2020/12/22 09:16:55;;;;;;;129.37;76.47;;;;;;;1.47;85.45;98184.07;1792743;78;21015;-84
2020/12/22 09:19:30;;;;;;;106.22;61.80;;;;;;;1.47;85.38;98175.24;1792431;80;21015;-84
2020/12/22 09:22:02;;;;;;;142.82;79.50;;;;;;;1.44;85.05;98167.13;1792506;78;21182;-76
2020/12/22 09:24:28;;;;;;;106.32;55.58;;;;;;;1.43;85.19;98153.99;1792397;80;21538;-83
2020/12/22 09:27:21;;;;;;;114.12;61.25;;;;;;;1.47;85.22;98155.21;1792435;78;20888;-84
2020/12/22 09:29:47;;;;;;;130.27;64.58;;;;;;;1.50;85.39;98150.76;1788299;80;21114;-84
2020/12/22 09:32:12;;;;;;;123.45;69.65;;;;;;;1.56;85.28;98134.69;1759138;81;21042;-77
2020/12/22 09:34:39;;;;;;;155.25;87.88;;;;;;;1.56;85.28;98134.69;1729380;80;21380;-77
2020/12/22 09:37:07;;;;;;;149.02;91.75;;;;;;;1.64;84.86;98133.59;1759112;81;21806;-77
2020/12/22 09:39:34;;;;;;;162.45;100.62;;;;;;;1.57;84.83;98121.62;1759250;81;21573;-77
2020/12/22 09:42:01;;;;;;;106.32;66.10;;;;;;;1.53;85.33;98130.28;1759119;80;21708;-77
2020/12/22 09:44:26;;;;;;;86.57;49.38;;;;;;;1.53;85.91;98132.43;1729417;81;21050;-83
2020/12/22 09:46:55;;;;;;;87.35;51.28;;;;;;;1.51;86.54;98132.36;1759090;80;21457;-84
2020/12/22 09:49:22;;;;;;;97.80;61.08;;;;;;;1.60;86.39;98141.73;1759309;81;21185;-83
2020/12/22 09:51:48;;;;;;;91.72;55.78;;;;;;;1.70;86.12;98127.34;1759166;80;21495;-77
2020/12/22 09:54:14;;;;;;;85.05;49.55;;;;;;;1.83;85.79;98127.75;1729189;81;21200;-83
2020/12/22 09:56:39;;;;;;;80.22;49.85;;;;;;;1.93;85.70;98128.05;1759150;80;21609;-83
2020/12/22 09:59:05;;;;;;;80.90;46.35;;;;;;;2.02;85.70;98133.41;1759007;81;21197;-83
2020/12/22 10:01:31;;;;;;;130.18;73.17;;;;;;;2.12;85.66;98132.36;1759054;80;20935;-84
2020/12/22 10:03:57;;;;;;;141.62;83.17;;;;;;;2.21;85.58;98131.55;1759056;81;20975;-84
2020/12/22 10:06:24;;;;;;;147.43;87.35;;;;;;;2.24;85.36;98131.94;1759193;80;20900;-77
2020/12/22 10:08:51;;;;;;;169.93;97.33;;;;;;;2.29;85.35;98117.06;1759119;81;21137;-84
2020/12/22 10:11:18;;;;;;;164.18;95.72;;;;;;;2.35;85.37;98112.98;1759187;80;22045;-84
2020/12/22 10:13:44;;;;;;;146.90;88.20;;;;;;;2.41;85.39;98121.98;1759130;81;21550;-77
2020/12/22 10:16:12;;;;;;;141.92;83.27;;;;;;;2.45;84.98;98118.61;1759171;80;20923;-84
2020/12/22 10:18:38;;;;;;;100.72;61.60;;;;;;;2.42;84.96;98111.56;1759173;81;21038;-77
2020/12/22 10:21:10;;;;;;;83.27;49.42;;;;;;;2.42;84.99;98100.88;1729457;81;21107;-83
2020/12/22 10:23:37;;;;;;;96.97;54.55;;;;;;;2.44;84.95;98096.11;1757986;81;21444;-84
2020/12/22 10:26:09;;;;;;;152.93;84.03;;;;;;;2.47;85.04;98100.99;1729221;81;21606;-84
2020/12/22 10:28:38;;;;;;;123.42;70.80;;;;;;;2.49;85.12;98106.44;1758172;81;21192;-77
2020/12/22 10:31:04;;;;;;;110.63;64.80;;;;;;;2.53;85.19;98116.97;1759266;80;21652;-77
2020/12/22 10:33:30;;;;;;;111.62;62.50;;;;;;;2.53;84.72;98111.61;1759075;81;21561;-77
2020/12/22 10:35:55;;;;;;;116.77;62.00;;;;;;;2.52;84.87;98106.49;1759206;80;21249;-83
2020/12/22 10:38:22;;;;;;;165.05;90.17;;;;;;;2.51;84.57;98085.62;1759182;81;21006;-77
2020/12/22 10:40:49;;;;;;;203.47;108.42;;;;;;;2.37;84.59;98081.47;1759122;80;21051;-77
2020/12/22 10:43:15;;;;;;;145.65;79.10;;;;;;;2.32;84.63;98067.98;1759020;81;21113;-77
2020/12/22 10:45:40;;;;;;;160.40;94.00;;;;;;;2.31;84.37;98073.03;1759063;80;21091;-83
2020/12/22 10:48:07;;;;;;;181.93;98.12;;;;;;;2.29;84.64;98080.97;1759086;81;21201;-83
2020/12/22 10:50:36;;;;;;;154.70;87.75;;;;;;;2.28;84.91;98065.97;1759131;80;21566;-80
2020/12/22 10:53:04;;;;;;;131.30;73.35;;;;;;;2.30;85.55;98074.57;1759085;81;21138;-83
2020/12/22 10:58:02;;;;;;;203.07;114.77;;;;;;;2.38;85.67;98058.22;1844548;76;22660;-76
2020/12/22 11:00:28;;;;;;;211.05;118.62;;;;;;;2.32;86.58;98050.59;1835773;77;20976;-83
2020/12/22 11:03:00;;;;;;;129.90;77.55;;;;;;;2.35;86.41;98056.00;1777043;79;22137;-82
2020/12/22 11:08:09;;;;;;;128.32;72.70;;;;;;;2.40;85.67;98046.27;1799571;79;20931;-80
2020/12/22 11:10:35;;;;;;;98.82;53.45;;;;;;;2.33;87.64;98040.19;1799383;78;21167;-76
2020/12/22 11:13:02;;;;;;;68.17;40.48;;;;;;;2.43;88.27;98040.45;1799460;79;21032;-76
2020/12/22 11:15:27;;;;;;;99.67;56.18;;;;;;;2.60;87.33;98035.28;1751629;79;21319;-80
2020/12/22 11:17:53;;;;;;;136.45;76.95;;;;;;;2.73;86.70;98016.86;1799315;79;21525;-76
2020/12/22 11:20:20;;;;;;;148.22;82.40;;;;;;;2.79;86.37;97998.56;1799511;78;20900;-82
2020/12/22 11:22:48;;;;;;;129.75;71.05;;;;;;;2.84;86.45;98006.73;1799367;79;21534;-76
2020/12/22 11:25:17;;;;;;;107.55;63.23;;;;;;;2.91;86.36;98013.32;1798972;77;21138;-77
2020/12/22 11:27:43;;;;;;;86.42;50.35;;;;;;;3.00;86.72;98039.52;1799376;79;21227;-82